»·PEaware :: N5422U KSBA-KPMD

N5422U :: KSBA-KPMD

FLIGHT INFORMATION

Flight Status: Arrived
Operator: Privately registered:
United States
More flights under this callsign
Pilot: Scott D. (32523)
Aircraft: BEECH AIRCRAFT BARON
(BE58)
More flights by this aircraft type
Origin: KSBA Santa Barbara Mun
United States
Destination: KPMD Palmdale AF Plant 42
United States
More flights between these airports :: More routes between these airports
Route:
File this flight plan on PilotEdge
Remarks:
Altitude:
(Current/Filed)
7,500ft
Speed:
(Current/Filed)
0kts
Departed: 30-Nov-20 06:06 PM
Arrived: 30-Nov-20 06:43 PM
Distance/Time
Traveled:
87nm/0:37
Distance/Time
To Go:
Arrived

Flight Plot

Page will automatically refresh every two minutes.

Flight plan parsing failed; only flown route is shown


Map Options




Map Legend


Flown Route
Filed Route
Departure Airport
Arrival Airport
Navaid (VOR, NDB)
Fix

Horizontal Profiles

Position Reports

Time Latitude Longitude Heading Altitude Ground
Speed
30-Nov-20 17:55 34.429105 -119.845676 64 15ft 0kts
30-Nov-20 17:56 34.429105 -119.845676 64 15ft 0kts
30-Nov-20 17:57 34.429105 -119.845676 64 15ft 0kts
30-Nov-20 17:58 34.429060 -119.845482 138 15ft 0kts
30-Nov-20 17:59 34.429060 -119.845482 138 15ft 0kts
30-Nov-20 18:00 34.429027 -119.845447 137 15ft 5kts
30-Nov-20 18:01 34.429515 -119.842880 63 13ft 5kts
30-Nov-20 18:02 34.429789 -119.842272 60 13ft 0kts
30-Nov-20 18:03 34.429789 -119.842272 60 13ft 0kts
30-Nov-20 18:05 34.429976 -119.841401 146 14ft 7kts
30-Nov-20 18:06 34.404092 -119.833364 166 579ft 173kts
30-Nov-20 18:07 34.356740 -119.818743 166 972ft 171kts
30-Nov-20 18:08 34.346061 -119.779556 45 1708ft 155kts
30-Nov-20 18:09 34.380058 -119.748455 33 3149ft 151kts
30-Nov-20 18:10 34.414559 -119.719758 34 4752ft 149kts
30-Nov-20 18:11 34.445349 -119.686835 60 6355ft 149kts
30-Nov-20 18:12 34.454827 -119.635939 85 7413ft 173kts
30-Nov-20 18:13 34.460928 -119.574561 78 7492ft 186kts
30-Nov-20 18:14 34.469581 -119.513081 83 7499ft 185kts
30-Nov-20 18:15 34.475660 -119.451094 80 7501ft 185kts
30-Nov-20 18:16 34.480314 -119.389071 90 7502ft 185kts
30-Nov-20 18:17 34.480077 -119.326771 90 7498ft 184kts
30-Nov-20 18:18 34.479978 -119.264565 90 7502ft 185kts
30-Nov-20 18:19 34.479894 -119.202109 90 7499ft 185kts
30-Nov-20 18:20 34.479806 -119.139660 90 7501ft 185kts
30-Nov-20 18:21 34.479748 -119.077213 90 7495ft 185kts
30-Nov-20 18:22 34.481957 -119.014995 85 7498ft 185kts
30-Nov-20 18:22 34.485511 -118.963356 85 7498ft 184kts
30-Nov-20 18:24 34.518092 -118.906840 35 7497ft 184kts
30-Nov-20 18:24 34.542406 -118.865210 70 7498ft 185kts
30-Nov-20 18:26 34.557638 -118.794916 74 7502ft 184kts
30-Nov-20 18:26 34.569329 -118.744924 74 7505ft 185kts
30-Nov-20 18:28 34.585766 -118.674833 73 7498ft 184kts
30-Nov-20 18:28 34.597464 -118.624976 73 7503ft 185kts
30-Nov-20 18:29 34.611588 -118.564787 73 7429ft 188kts
30-Nov-20 18:30 34.626135 -118.502825 73 7111ft 188kts
30-Nov-20 18:31 34.640095 -118.443365 73 7314ft 181kts
30-Nov-20 18:32 34.642350 -118.385282 124 7480ft 182kts
30-Nov-20 18:33 34.610402 -118.336086 112 7233ft 189kts
30-Nov-20 18:34 34.608243 -118.273140 80 7080ft 185kts
30-Nov-20 18:35 34.615979 -118.217427 83 6357ft 141kts
30-Nov-20 18:36 34.619640 -118.170081 82 4656ft 135kts
30-Nov-20 18:37 34.623854 -118.126928 100 4250ft 152kts
30-Nov-20 18:38 34.616503 -118.077093 96 4352ft 140kts
30-Nov-20 18:39 34.624653 -118.036571 21 3914ft 117kts
30-Nov-20 18:40 34.633336 -118.063285 266 2784ft 94kts
30-Nov-20 18:41 34.631884 -118.089627 267 2516ft 45kts
30-Nov-20 18:42 34.632105 -118.097973 357 2529ft 9kts
30-Nov-20 18:43 34.635951 -118.097891 8 2522ft 11kts
30-Nov-20 18:44 34.637063 -118.097500 83 2516ft 0kts
30-Nov-20 18:45 34.637063 -118.097500 83 2516ft 0kts
30-Nov-20 18:46 34.637063 -118.097500 83 2516ft 0kts
30-Nov-20 18:47 34.637059 -118.097535 83 2517ft 0kts
30-Nov-20 18:48 34.637046 -118.097644 83 2517ft 0kts
30-Nov-20 18:49 34.637034 -118.097753 83 2517ft 0kts
30-Nov-20 18:50 34.637022 -118.097861 83 2517ft 0kts
30-Nov-20 18:51 34.637020 -118.097877 83 2517ft 0kts
30-Nov-20 18:52 34.637020 -118.097877 83 2517ft 0kts
30-Nov-20 18:53 34.637020 -118.097877 83 2517ft 0kts
30-Nov-20 18:54 34.636675 -118.097740 187 2519ft 0kts
30-Nov-20 18:55 34.636567 -118.097758 187 2519ft 4kts
30-Nov-20 18:56 34.633635 -118.097100 84 2524ft 14kts

Navigation Log

Ident Type
Flight plan parsing failed, navigation log unavailable